sensor_id;sensor_type;location;lat;lon;timestamp;P1;durP1;ratioP1;P2;durP2;ratioP2
44694;SDS011;32845;59.422;17.930;2022-10-22T00:00:56;5.53;;;3.40;;
44694;SDS011;32845;59.422;17.930;2022-10-22T00:05:26;4.50;;;3.20;;
44694;SDS011;32845;59.422;17.930;2022-10-22T00:09:57;7.20;;;3.38;;
44694;SDS011;32845;59.422;17.930;2022-10-22T00:14:33;8.55;;;4.63;;
44694;SDS011;32845;59.422;17.930;2022-10-22T00:19:03;8.88;;;3.85;;
44694;SDS011;32845;59.422;17.930;2022-10-22T00:23:44;8.02;;;3.65;;
44694;SDS011;32845;59.422;17.930;2022-10-22T00:28:15;5.43;;;3.35;;
44694;SDS011;32845;59.422;17.930;2022-10-22T00:32:50;6.55;;;3.20;;
44694;SDS011;32845;59.422;17.930;2022-10-22T00:37:21;6.78;;;3.63;;
44694;SDS011;32845;59.422;17.930;2022-10-22T00:41:52;8.45;;;3.10;;
44694;SDS011;32845;59.422;17.930;2022-10-22T00:46:24;8.82;;;3.47;;
44694;SDS011;32845;59.422;17.930;2022-10-22T00:51:00;7.20;;;3.28;;
44694;SDS011;32845;59.422;17.930;2022-10-22T00:55:33;7.28;;;3.78;;
44694;SDS011;32845;59.422;17.930;2022-10-22T01:00:05;9.48;;;3.70;;
44694;SDS011;32845;59.422;17.930;2022-10-22T01:04:36;7.05;;;4.10;;
44694;SDS011;32845;59.422;17.930;2022-10-22T01:18:20;5.82;;;2.97;;
44694;SDS011;32845;59.422;17.930;2022-10-22T01:32:35;9.52;;;2.97;;
44694;SDS011;32845;59.422;17.930;2022-10-22T01:37:13;12.77;;;3.40;;
44694;SDS011;32845;59.422;17.930;2022-10-22T01:41:44;4.22;;;2.60;;
44694;SDS011;32845;59.422;17.930;2022-10-22T01:46:15;7.18;;;2.92;;
44694;SDS011;32845;59.422;17.930;2022-10-22T02:00:13;3.80;;;2.08;;
44694;SDS011;32845;59.422;17.930;2022-10-22T02:04:52;8.77;;;3.03;;
44694;SDS011;32845;59.422;17.930;2022-10-22T02:09:25;5.80;;;2.87;;
44694;SDS011;32845;59.422;17.930;2022-10-22T02:14:03;5.82;;;2.85;;
44694;SDS011;32845;59.422;17.930;2022-10-22T02:18:37;5.28;;;2.72;;
44694;SDS011;32845;59.422;17.930;2022-10-22T02:23:16;4.95;;;3.08;;
44694;SDS011;32845;59.422;17.930;2022-10-22T02:27:48;5.07;;;2.63;;
44694;SDS011;32845;59.422;17.930;2022-10-22T02:32:27;11.20;;;2.87;;
44694;SDS011;32845;59.422;17.930;2022-10-22T02:37:03;8.98;;;2.70;;
44694;SDS011;32845;59.422;17.930;2022-10-22T02:41:35;3.88;;;2.60;;
44694;SDS011;32845;59.422;17.930;2022-10-22T02:46:12;8.35;;;2.70;;
44694;SDS011;32845;59.422;17.930;2022-10-22T02:50:42;10.70;;;2.75;;
44694;SDS011;32845;59.422;17.930;2022-10-22T02:55:18;5.70;;;3.05;;
44694;SDS011;32845;59.422;17.930;2022-10-22T02:59:48;7.43;;;2.42;;
44694;SDS011;32845;59.422;17.930;2022-10-22T03:04:24;7.10;;;2.22;;
44694;SDS011;32845;59.422;17.930;2022-10-22T03:08:55;6.07;;;3.10;;
44694;SDS011;32845;59.422;17.930;2022-10-22T03:13:26;9.68;;;2.60;;
44694;SDS011;32845;59.422;17.930;2022-10-22T03:17:57;4.50;;;2.65;;
44694;SDS011;32845;59.422;17.930;2022-10-22T03:22:28;3.70;;;2.10;;
44694;SDS011;32845;59.422;17.930;2022-10-22T03:27:01;7.30;;;2.30;;
44694;SDS011;32845;59.422;17.930;2022-10-22T03:31:32;5.43;;;2.60;;
44694;SDS011;32845;59.422;17.930;2022-10-22T03:36:03;6.97;;;2.05;;
44694;SDS011;32845;59.422;17.930;2022-10-22T03:40:36;3.08;;;1.88;;
44694;SDS011;32845;59.422;17.930;2022-10-22T03:45:07;6.82;;;1.83;;
44694;SDS011;32845;59.422;17.930;2022-10-22T03:49:38;5.15;;;2.58;;
44694;SDS011;32845;59.422;17.930;2022-10-22T03:54:08;7.45;;;2.30;;
44694;SDS011;32845;59.422;17.930;2022-10-22T03:58:39;3.90;;;2.17;;
44694;SDS011;32845;59.422;17.930;2022-10-22T04:03:20;17.10;;;3.53;;
44694;SDS011;32845;59.422;17.930;2022-10-22T04:07:51;5.47;;;2.58;;
44694;SDS011;32845;59.422;17.930;2022-10-22T04:12:22;4.28;;;2.63;;
44694;SDS011;32845;59.422;17.930;2022-10-22T04:16:52;5.53;;;2.40;;
44694;SDS011;32845;59.422;17.930;2022-10-22T04:21:23;12.57;;;2.40;;
44694;SDS011;32845;59.422;17.930;2022-10-22T04:25:58;4.85;;;2.03;;
44694;SDS011;32845;59.422;17.930;2022-10-22T04:30:30;5.78;;;1.70;;
44694;SDS011;32845;59.422;17.930;2022-10-22T04:35:00;4.25;;;2.15;;
44694;SDS011;32845;59.422;17.930;2022-10-22T04:39:31;4.38;;;2.00;;
44694;SDS011;32845;59.422;17.930;2022-10-22T04:44:02;6.55;;;2.17;;
44694;SDS011;32845;59.422;17.930;2022-10-22T04:48:34;4.38;;;2.28;;
44694;SDS011;32845;59.422;17.930;2022-10-22T04:53:05;7.97;;;2.70;;
44694;SDS011;32845;59.422;17.930;2022-10-22T04:57:36;6.68;;;2.70;;
44694;SDS011;32845;59.422;17.930;2022-10-22T05:02:07;7.50;;;2.55;;
44694;SDS011;32845;59.422;17.930;2022-10-22T05:06:37;9.32;;;4.25;;
44694;SDS011;32845;59.422;17.930;2022-10-22T05:15:49;6.75;;;3.30;;
44694;SDS011;32845;59.422;17.930;2022-10-22T05:20:19;8.43;;;3.00;;
44694;SDS011;32845;59.422;17.930;2022-10-22T05:24:50;8.70;;;2.50;;
44694;SDS011;32845;59.422;17.930;2022-10-22T05:29:21;9.82;;;2.50;;
44694;SDS011;32845;59.422;17.930;2022-10-22T05:33:52;4.50;;;2.17;;
44694;SDS011;32845;59.422;17.930;2022-10-22T05:38:23;7.30;;;2.35;;
44694;SDS011;32845;59.422;17.930;2022-10-22T05:43:03;4.07;;;2.30;;
44694;SDS011;32845;59.422;17.930;2022-10-22T05:47:34;4.60;;;2.20;;
44694;SDS011;32845;59.422;17.930;2022-10-22T05:52:04;6.28;;;2.90;;
44694;SDS011;32845;59.422;17.930;2022-10-22T05:56:35;6.65;;;3.30;;
44694;SDS011;32845;59.422;17.930;2022-10-22T06:01:07;4.15;;;2.58;;
44694;SDS011;32845;59.422;17.930;2022-10-22T06:05:43;6.65;;;3.33;;
44694;SDS011;32845;59.422;17.930;2022-10-22T06:10:14;7.55;;;2.70;;
44694;SDS011;32845;59.422;17.930;2022-10-22T06:14:48;11.90;;;2.95;;
44694;SDS011;32845;59.422;17.930;2022-10-22T06:19:20;6.10;;;2.90;;
44694;SDS011;32845;59.422;17.930;2022-10-22T06:23:51;5.05;;;2.30;;
44694;SDS011;32845;59.422;17.930;2022-10-22T06:28:25;6.82;;;2.70;;
44694;SDS011;32845;59.422;17.930;2022-10-22T06:33:01;5.32;;;2.90;;
44694;SDS011;32845;59.422;17.930;2022-10-22T06:37:31;7.78;;;3.40;;
44694;SDS011;32845;59.422;17.930;2022-10-22T06:42:02;7.20;;;3.05;;
44694;SDS011;32845;59.422;17.930;2022-10-22T06:46:33;5.95;;;2.90;;
44694;SDS011;32845;59.422;17.930;2022-10-22T06:51:04;9.38;;;3.53;;
44694;SDS011;32845;59.422;17.930;2022-10-22T06:55:42;6.15;;;3.40;;
44694;SDS011;32845;59.422;17.930;2022-10-22T07:00:12;9.27;;;3.17;;
44694;SDS011;32845;59.422;17.930;2022-10-22T07:04:43;7.63;;;3.20;;
44694;SDS011;32845;59.422;17.930;2022-10-22T07:09:14;5.45;;;2.92;;
44694;SDS011;32845;59.422;17.930;2022-10-22T07:13:55;5.43;;;3.00;;
44694;SDS011;32845;59.422;17.930;2022-10-22T07:18:28;8.13;;;3.20;;
44694;SDS011;32845;59.422;17.930;2022-10-22T07:23:03;8.45;;;2.85;;
44694;SDS011;32845;59.422;17.930;2022-10-22T07:27:34;6.20;;;3.08;;
44694;SDS011;32845;59.422;17.930;2022-10-22T07:32:05;7.43;;;3.30;;
44694;SDS011;32845;59.422;17.930;2022-10-22T07:36:36;7.85;;;3.08;;
44694;SDS011;32845;59.422;17.930;2022-10-22T07:41:06;4.85;;;3.05;;
44694;SDS011;32845;59.422;17.930;2022-10-22T07:45:37;4.45;;;3.05;;
44694;SDS011;32845;59.422;17.930;2022-10-22T07:50:07;11.63;;;3.58;;
44694;SDS011;32845;59.422;17.930;2022-10-22T07:54:38;7.47;;;3.10;;
44694;SDS011;32845;59.422;17.930;2022-10-22T07:59:09;6.63;;;3.08;;
44694;SDS011;32845;59.422;17.930;2022-10-22T08:03:40;5.22;;;3.25;;
44694;SDS011;32845;59.422;17.930;2022-10-22T08:08:11;6.22;;;3.10;;
44694;SDS011;32845;59.422;17.930;2022-10-22T08:12:43;7.57;;;2.88;;
44694;SDS011;32845;59.422;17.930;2022-10-22T08:17:14;8.77;;;3.10;;
44694;SDS011;32845;59.422;17.930;2022-10-22T08:21:44;6.15;;;2.63;;
44694;SDS011;32845;59.422;17.930;2022-10-22T08:26:16;7.60;;;2.85;;
44694;SDS011;32845;59.422;17.930;2022-10-22T08:30:47;9.10;;;3.28;;
44694;SDS011;32845;59.422;17.930;2022-10-22T08:35:22;5.45;;;2.90;;
44694;SDS011;32845;59.422;17.930;2022-10-22T08:39:53;9.88;;;2.92;;
44694;SDS011;32845;59.422;17.930;2022-10-22T08:49:28;9.30;;;5.03;;
44694;SDS011;32845;59.422;17.930;2022-10-22T08:59:45;9.82;;;4.43;;
44694;SDS011;32845;59.422;17.930;2022-10-22T09:04:07;10.80;;;4.13;;
44694;SDS011;32845;59.422;17.930;2022-10-22T09:08:43;7.72;;;3.83;;
44694;SDS011;32845;59.422;17.930;2022-10-22T09:13:18;8.20;;;3.60;;
44694;SDS011;32845;59.422;17.930;2022-10-22T09:17:54;10.50;;;3.85;;
44694;SDS011;32845;59.422;17.930;2022-10-22T09:27:51;10.23;;;3.53;;
44694;SDS011;32845;59.422;17.930;2022-10-22T09:32:24;10.45;;;3.83;;
44694;SDS011;32845;59.422;17.930;2022-10-22T09:37:02;10.23;;;4.03;;
44694;SDS011;32845;59.422;17.930;2022-10-22T09:41:35;9.93;;;3.80;;
44694;SDS011;32845;59.422;17.930;2022-10-22T09:46:22;7.43;;;3.58;;
44694;SDS011;32845;59.422;17.930;2022-10-22T09:51:05;11.77;;;4.05;;
44694;SDS011;32845;59.422;17.930;2022-10-22T09:55:56;11.23;;;4.68;;
44694;SDS011;32845;59.422;17.930;2022-10-22T10:00:28;8.70;;;4.60;;
44694;SDS011;32845;59.422;17.930;2022-10-22T10:05:05;9.93;;;4.78;;
44694;SDS011;32845;59.422;17.930;2022-10-22T10:09:36;9.55;;;4.45;;
44694;SDS011;32845;59.422;17.930;2022-10-22T10:14:09;11.80;;;5.00;;
44694;SDS011;32845;59.422;17.930;2022-10-22T10:23:38;11.32;;;5.38;;
44694;SDS011;32845;59.422;17.930;2022-10-22T10:37:45;13.10;;;5.68;;
44694;SDS011;32845;59.422;17.930;2022-10-22T10:42:42;20.83;;;4.93;;
44694;SDS011;32845;59.422;17.930;2022-10-22T10:57:05;11.60;;;5.93;;
44694;SDS011;32845;59.422;17.930;2022-10-22T11:06:30;22.15;;;5.80;;
44694;SDS011;32845;59.422;17.930;2022-10-22T11:11:14;10.85;;;4.57;;
44694;SDS011;32845;59.422;17.930;2022-10-22T11:15:55;20.87;;;5.23;;
44694;SDS011;32845;59.422;17.930;2022-10-22T11:20:45;21.60;;;5.20;;
44694;SDS011;32845;59.422;17.930;2022-10-22T11:25:33;9.23;;;5.60;;
44694;SDS011;32845;59.422;17.930;2022-10-22T11:30:12;9.52;;;4.80;;
44694;SDS011;32845;59.422;17.930;2022-10-22T11:39:52;12.52;;;5.78;;
44694;SDS011;32845;59.422;17.930;2022-10-22T11:49:00;11.95;;;5.07;;
44694;SDS011;32845;59.422;17.930;2022-10-22T11:53:34;14.23;;;4.97;;
44694;SDS011;32845;59.422;17.930;2022-10-22T11:58:25;13.23;;;5.50;;
44694;SDS011;32845;59.422;17.930;2022-10-22T12:08:02;12.30;;;4.97;;
44694;SDS011;32845;59.422;17.930;2022-10-22T12:12:51;10.43;;;4.90;;
44694;SDS011;32845;59.422;17.930;2022-10-22T12:17:26;9.98;;;5.18;;
44694;SDS011;32845;59.422;17.930;2022-10-22T12:21:58;12.55;;;6.32;;
44694;SDS011;32845;59.422;17.930;2022-10-22T12:26:46;12.00;;;5.50;;
44694;SDS011;32845;59.422;17.930;2022-10-22T12:31:21;11.70;;;5.18;;
44694;SDS011;32845;59.422;17.930;2022-10-22T12:36:00;12.45;;;6.03;;
44694;SDS011;32845;59.422;17.930;2022-10-22T12:40:33;11.70;;;5.93;;
44694;SDS011;32845;59.422;17.930;2022-10-22T12:45:04;15.52;;;6.85;;
44694;SDS011;32845;59.422;17.930;2022-10-22T12:49:37;13.45;;;6.05;;
44694;SDS011;32845;59.422;17.930;2022-10-22T12:54:26;11.00;;;6.10;;
44694;SDS011;32845;59.422;17.930;2022-10-22T12:59:19;11.55;;;6.15;;
44694;SDS011;32845;59.422;17.930;2022-10-22T13:09:06;15.90;;;7.40;;
44694;SDS011;32845;59.422;17.930;2022-10-22T13:13:46;15.00;;;6.88;;
44694;SDS011;32845;59.422;17.930;2022-10-22T13:18:21;12.98;;;5.07;;
44694;SDS011;32845;59.422;17.930;2022-10-22T13:22:57;13.95;;;5.45;;
44694;SDS011;32845;59.422;17.930;2022-10-22T13:27:30;12.00;;;5.68;;
44694;SDS011;32845;59.422;17.930;2022-10-22T13:32:00;12.63;;;6.10;;
44694;SDS011;32845;59.422;17.930;2022-10-22T13:36:31;11.57;;;6.68;;
44694;SDS011;32845;59.422;17.930;2022-10-22T13:41:02;24.30;;;9.13;;
44694;SDS011;32845;59.422;17.930;2022-10-22T13:45:33;16.80;;;8.32;;
44694;SDS011;32845;59.422;17.930;2022-10-22T13:50:10;17.67;;;8.57;;
44694;SDS011;32845;59.422;17.930;2022-10-22T13:54:45;20.40;;;8.50;;
44694;SDS011;32845;59.422;17.930;2022-10-22T13:59:16;19.65;;;7.50;;
44694;SDS011;32845;59.422;17.930;2022-10-22T14:03:47;14.05;;;6.25;;
44694;SDS011;32845;59.422;17.930;2022-10-22T14:08:20;20.58;;;7.95;;
44694;SDS011;32845;59.422;17.930;2022-10-22T14:12:52;16.13;;;8.20;;
44694;SDS011;32845;59.422;17.930;2022-10-22T14:17:23;30.88;;;8.65;;
44694;SDS011;32845;59.422;17.930;2022-10-22T14:21:54;16.70;;;7.97;;
44694;SDS011;32845;59.422;17.930;2022-10-22T14:26:28;15.15;;;7.53;;
44694;SDS011;32845;59.422;17.930;2022-10-22T14:31:02;22.23;;;7.35;;
44694;SDS011;32845;59.422;17.930;2022-10-22T14:35:32;13.98;;;6.75;;
44694;SDS011;32845;59.422;17.930;2022-10-22T14:40:03;16.60;;;8.18;;
44694;SDS011;32845;59.422;17.930;2022-10-22T14:44:34;20.20;;;8.10;;
44694;SDS011;32845;59.422;17.930;2022-10-22T14:49:05;16.20;;;8.70;;
44694;SDS011;32845;59.422;17.930;2022-10-22T14:53:41;12.65;;;7.65;;
44694;SDS011;32845;59.422;17.930;2022-10-22T14:58:12;12.90;;;7.30;;
44694;SDS011;32845;59.422;17.930;2022-10-22T15:02:43;16.88;;;8.70;;
44694;SDS011;32845;59.422;17.930;2022-10-22T15:07:14;35.85;;;9.30;;
44694;SDS011;32845;59.422;17.930;2022-10-22T15:11:45;15.93;;;8.90;;
44694;SDS011;32845;59.422;17.930;2022-10-22T15:16:20;16.52;;;9.07;;
44694;SDS011;32845;59.422;17.930;2022-10-22T15:20:57;17.98;;;9.23;;
44694;SDS011;32845;59.422;17.930;2022-10-22T15:25:30;19.20;;;9.18;;
44694;SDS011;32845;59.422;17.930;2022-10-22T15:30:01;18.38;;;10.43;;
44694;SDS011;32845;59.422;17.930;2022-10-22T15:34:38;27.13;;;11.05;;
44694;SDS011;32845;59.422;17.930;2022-10-22T15:39:09;20.83;;;11.43;;
44694;SDS011;32845;59.422;17.930;2022-10-22T15:43:48;21.48;;;11.30;;
44694;SDS011;32845;59.422;17.930;2022-10-22T15:52:50;26.52;;;12.07;;
44694;SDS011;32845;59.422;17.930;2022-10-22T15:57:20;26.63;;;13.30;;
44694;SDS011;32845;59.422;17.930;2022-10-22T16:01:51;27.20;;;13.82;;
44694;SDS011;32845;59.422;17.930;2022-10-22T16:06:22;30.38;;;13.48;;
44694;SDS011;32845;59.422;17.930;2022-10-22T16:10:52;21.23;;;12.45;;
44694;SDS011;32845;59.422;17.930;2022-10-22T16:15:23;36.40;;;13.90;;
44694;SDS011;32845;59.422;17.930;2022-10-22T16:19:54;27.25;;;14.70;;
44694;SDS011;32845;59.422;17.930;2022-10-22T16:24:25;27.15;;;13.30;;
44694;SDS011;32845;59.422;17.930;2022-10-22T16:28:56;31.08;;;15.82;;
44694;SDS011;32845;59.422;17.930;2022-10-22T16:33:27;32.45;;;16.95;;
44694;SDS011;32845;59.422;17.930;2022-10-22T16:37:58;31.35;;;17.10;;
44694;SDS011;32845;59.422;17.930;2022-10-22T16:42:29;29.98;;;17.55;;
44694;SDS011;32845;59.422;17.930;2022-10-22T16:46:59;29.42;;;15.43;;
44694;SDS011;32845;59.422;17.930;2022-10-22T16:51:30;42.28;;;17.58;;
44694;SDS011;32845;59.422;17.930;2022-10-22T16:56:01;29.35;;;17.95;;
44694;SDS011;32845;59.422;17.930;2022-10-22T17:00:32;45.13;;;23.35;;
44694;SDS011;32845;59.422;17.930;2022-10-22T17:05:03;46.00;;;24.42;;
44694;SDS011;32845;59.422;17.930;2022-10-22T17:09:34;69.22;;;35.70;;
44694;SDS011;32845;59.422;17.930;2022-10-22T17:14:05;52.20;;;27.17;;
44694;SDS011;32845;59.422;17.930;2022-10-22T17:18:37;49.08;;;25.52;;
44694;SDS011;32845;59.422;17.930;2022-10-22T17:23:09;49.38;;;25.38;;
44694;SDS011;32845;59.422;17.930;2022-10-22T17:27:40;42.20;;;24.48;;
44694;SDS011;32845;59.422;17.930;2022-10-22T17:32:11;43.03;;;22.02;;
44694;SDS011;32845;59.422;17.930;2022-10-22T17:36:47;44.92;;;21.35;;
44694;SDS011;32845;59.422;17.930;2022-10-22T17:41:19;38.17;;;20.30;;
44694;SDS011;32845;59.422;17.930;2022-10-22T17:45:51;37.63;;;19.25;;
44694;SDS011;32845;59.422;17.930;2022-10-22T17:50:22;41.55;;;21.73;;
44694;SDS011;32845;59.422;17.930;2022-10-22T17:54:58;42.00;;;21.33;;
44694;SDS011;32845;59.422;17.930;2022-10-22T17:59:28;48.38;;;22.55;;
44694;SDS011;32845;59.422;17.930;2022-10-22T18:04:09;44.63;;;21.58;;
44694;SDS011;32845;59.422;17.930;2022-10-22T18:08:42;43.40;;;22.60;;
44694;SDS011;32845;59.422;17.930;2022-10-22T18:13:22;49.13;;;24.00;;
44694;SDS011;32845;59.422;17.930;2022-10-22T18:22:23;42.65;;;22.83;;
44694;SDS011;32845;59.422;17.930;2022-10-22T18:26:59;57.38;;;23.48;;
44694;SDS011;32845;59.422;17.930;2022-10-22T18:31:30;42.40;;;23.42;;
44694;SDS011;32845;59.422;17.930;2022-10-22T18:36:10;45.65;;;24.63;;
44694;SDS011;32845;59.422;17.930;2022-10-22T18:40:44;48.92;;;23.92;;
44694;SDS011;32845;59.422;17.930;2022-10-22T18:45:15;43.30;;;23.50;;
44694;SDS011;32845;59.422;17.930;2022-10-22T18:49:46;49.83;;;24.48;;
44694;SDS011;32845;59.422;17.930;2022-10-22T18:54:18;48.90;;;23.95;;
44694;SDS011;32845;59.422;17.930;2022-10-22T18:58:49;51.72;;;24.08;;
44694;SDS011;32845;59.422;17.930;2022-10-22T19:03:21;52.92;;;24.67;;
44694;SDS011;32845;59.422;17.930;2022-10-22T19:07:51;47.58;;;22.65;;
44694;SDS011;32845;59.422;17.930;2022-10-22T19:12:22;43.58;;;23.02;;
44694;SDS011;32845;59.422;17.930;2022-10-22T19:16:53;42.40;;;22.02;;
44694;SDS011;32845;59.422;17.930;2022-10-22T19:21:23;40.42;;;20.67;;
44694;SDS011;32845;59.422;17.930;2022-10-22T19:26:09;39.67;;;20.60;;
44694;SDS011;32845;59.422;17.930;2022-10-22T19:30:42;50.97;;;26.02;;
44694;SDS011;32845;59.422;17.930;2022-10-22T19:35:18;47.95;;;21.73;;
44694;SDS011;32845;59.422;17.930;2022-10-22T19:39:49;36.42;;;20.58;;
44694;SDS011;32845;59.422;17.930;2022-10-22T19:44:19;32.15;;;17.67;;
44694;SDS011;32845;59.422;17.930;2022-10-22T19:48:50;30.33;;;14.77;;
44694;SDS011;32845;59.422;17.930;2022-10-22T19:53:21;31.65;;;16.52;;
44694;SDS011;32845;59.422;17.930;2022-10-22T19:57:52;25.23;;;13.48;;
44694;SDS011;32845;59.422;17.930;2022-10-22T20:02:23;22.23;;;11.23;;
44694;SDS011;32845;59.422;17.930;2022-10-22T20:06:55;16.20;;;9.70;;
44694;SDS011;32845;59.422;17.930;2022-10-22T20:11:26;13.85;;;8.15;;
44694;SDS011;32845;59.422;17.930;2022-10-22T20:15:58;14.93;;;8.80;;
44694;SDS011;32845;59.422;17.930;2022-10-22T20:20:29;11.15;;;7.00;;
44694;SDS011;32845;59.422;17.930;2022-10-22T20:25:00;12.63;;;7.10;;
44694;SDS011;32845;59.422;17.930;2022-10-22T20:29:31;10.32;;;6.72;;
44694;SDS011;32845;59.422;17.930;2022-10-22T20:34:01;12.60;;;7.05;;
44694;SDS011;32845;59.422;17.930;2022-10-22T20:38:33;9.35;;;6.20;;
44694;SDS011;32845;59.422;17.930;2022-10-22T20:43:04;9.18;;;5.78;;
44694;SDS011;32845;59.422;17.930;2022-10-22T20:47:35;7.63;;;5.03;;
44694;SDS011;32845;59.422;17.930;2022-10-22T20:52:06;7.18;;;3.70;;
44694;SDS011;32845;59.422;17.930;2022-10-22T20:56:38;5.95;;;3.72;;
44694;SDS011;32845;59.422;17.930;2022-10-22T21:01:09;12.02;;;3.97;;
44694;SDS011;32845;59.422;17.930;2022-10-22T21:05:42;4.95;;;3.13;;
44694;SDS011;32845;59.422;17.930;2022-10-22T21:10:12;6.75;;;3.63;;
44694;SDS011;32845;59.422;17.930;2022-10-22T21:14:48;5.85;;;3.40;;
44694;SDS011;32845;59.422;17.930;2022-10-22T21:19:19;7.18;;;3.50;;
44694;SDS011;32845;59.422;17.930;2022-10-22T21:23:51;4.85;;;3.30;;
44694;SDS011;32845;59.422;17.930;2022-10-22T21:28:22;8.02;;;4.63;;
44694;SDS011;32845;59.422;17.930;2022-10-22T21:32:53;10.02;;;4.65;;
44694;SDS011;32845;59.422;17.930;2022-10-22T21:37:25;12.35;;;4.80;;
44694;SDS011;32845;59.422;17.930;2022-10-22T21:41:58;9.10;;;4.68;;
44694;SDS011;32845;59.422;17.930;2022-10-22T21:46:29;5.93;;;3.30;;
44694;SDS011;32845;59.422;17.930;2022-10-22T21:51:04;6.55;;;2.80;;
44694;SDS011;32845;59.422;17.930;2022-10-22T21:55:40;3.95;;;2.50;;
44694;SDS011;32845;59.422;17.930;2022-10-22T22:00:11;6.03;;;2.88;;
44694;SDS011;32845;59.422;17.930;2022-10-22T22:04:42;6.63;;;3.03;;
44694;SDS011;32845;59.422;17.930;2022-10-22T22:09:13;8.48;;;3.00;;
44694;SDS011;32845;59.422;17.930;2022-10-22T22:13:44;7.05;;;3.47;;
44694;SDS011;32845;59.422;17.930;2022-10-22T22:18:14;5.85;;;2.88;;
44694;SDS011;32845;59.422;17.930;2022-10-22T22:22:45;3.95;;;3.20;;
44694;SDS011;32845;59.422;17.930;2022-10-22T22:27:16;5.47;;;3.25;;
44694;SDS011;32845;59.422;17.930;2022-10-22T22:31:46;6.22;;;3.35;;
44694;SDS011;32845;59.422;17.930;2022-10-22T22:36:22;5.47;;;3.05;;
44694;SDS011;32845;59.422;17.930;2022-10-22T22:40:53;7.03;;;3.42;;
44694;SDS011;32845;59.422;17.930;2022-10-22T22:45:23;4.68;;;3.00;;
44694;SDS011;32845;59.422;17.930;2022-10-22T22:49:54;7.57;;;3.17;;
44694;SDS011;32845;59.422;17.930;2022-10-22T22:54:25;4.93;;;2.58;;
44694;SDS011;32845;59.422;17.930;2022-10-22T22:58:56;5.90;;;2.88;;
44694;SDS011;32845;59.422;17.930;2022-10-22T23:03:37;11.00;;;3.70;;
44694;SDS011;32845;59.422;17.930;2022-10-22T23:08:08;6.32;;;3.67;;
44694;SDS011;32845;59.422;17.930;2022-10-22T23:12:38;9.63;;;3.83;;
44694;SDS011;32845;59.422;17.930;2022-10-22T23:17:09;7.28;;;3.83;;
44694;SDS011;32845;59.422;17.930;2022-10-22T23:21:42;8.13;;;3.90;;
44694;SDS011;32845;59.422;17.930;2022-10-22T23:26:25;8.55;;;3.67;;
44694;SDS011;32845;59.422;17.930;2022-10-22T23:31:02;8.52;;;4.65;;
44694;SDS011;32845;59.422;17.930;2022-10-22T23:35:39;9.43;;;4.60;;
44694;SDS011;32845;59.422;17.930;2022-10-22T23:40:10;7.47;;;4.25;;
44694;SDS011;32845;59.422;17.930;2022-10-22T23:44:46;6.93;;;4.00;;
44694;SDS011;32845;59.422;17.930;2022-10-22T23:49:17;7.15;;;4.05;;
44694;SDS011;32845;59.422;17.930;2022-10-22T23:53:52;6.95;;;3.72;;
44694;SDS011;32845;59.422;17.930;2022-10-22T23:58:27;6.43;;;3.70;;
